Time;durP1;ratioP1;P1;durP2;ratioP2;P2;SDS_P1;SDS_P2;PMS_P1;PMS_P2;Temp;Humidity;BMP_temperature;BMP_pressure;BME280_temperature;BME280_humidity;BME280_pressure;Samples;Min_cycle;Max_cycle;Signal;HPM_P1;HPM_P2
2023/03/14 00:02:09;;;;;;;0.90;0.90;;;9.40;99.90;;;;;;4962126;28;20487;-67
2023/03/14 00:04:36;;;;;;;1.03;0.93;;;9.40;99.90;;;;;;4952081;28;20211;-67
2023/03/14 00:07:02;;;;;;;2.27;1.30;;;9.40;99.90;;;;;;4953978;28;20244;-67
2023/03/14 00:09:29;;;;;;;0.87;0.83;;;9.40;99.90;;;;;;4965688;28;20475;-67
2023/03/14 00:11:55;;;;;;;1.83;0.80;;;9.40;99.90;;;;;;4962612;28;20264;-68
2023/03/14 00:14:21;;;;;;;1.07;0.97;;;9.40;99.90;;;;;;4951000;28;20906;-68
2023/03/14 00:16:46;;;;;;;0.97;0.90;;;9.40;99.90;;;;;;4952308;28;20464;-67
2023/03/14 00:19:12;;;;;;;2.03;0.97;;;9.40;99.90;;;;;;4953582;28;20227;-67
2023/03/14 00:21:37;;;;;;;1.20;1.10;;;9.40;99.90;;;;;;4954189;28;20536;-67
2023/03/14 00:24:03;;;;;;;1.00;0.80;;;9.40;99.90;;;;;;4955029;28;20719;-67
2023/03/14 00:26:29;;;;;;;2.50;1.13;;;9.40;99.90;;;;;;4953256;28;20287;-67
2023/03/14 00:28:55;;;;;;;2.73;1.07;;;9.40;99.90;;;;;;4960849;28;20322;-67
2023/03/14 00:31:20;;;;;;;1.53;1.10;;;9.40;99.90;;;;;;4964742;28;20263;-67
2023/03/14 00:33:46;;;;;;;1.10;1.10;;;9.40;99.90;;;;;;4960209;28;20452;-67
2023/03/14 00:36:14;;;;;;;1.00;0.97;;;9.40;99.90;;;;;;4952788;28;20200;-67
2023/03/14 00:38:41;;;;;;;2.80;1.03;;;9.40;99.90;;;;;;4954571;28;20239;-67
2023/03/14 00:41:12;;;;;;;2.37;1.20;;;9.40;99.90;;;;;;4961294;28;20440;-68
2023/03/14 00:43:38;;;;;;;1.40;1.20;;;9.40;99.90;;;;;;4954633;28;20439;-68
2023/03/14 00:46:04;;;;;;;1.20;0.70;;;9.40;99.90;;;;;;4953165;28;20480;-67
2023/03/14 00:48:30;;;;;;;1.30;1.20;;;9.40;99.90;;;;;;4951558;28;20460;-68
2023/03/14 00:50:56;;;;;;;1.80;1.30;;;9.40;99.90;;;;;;4959622;28;20471;-68
2023/03/14 00:53:22;;;;;;;1.20;1.10;;;9.40;99.90;;;;;;4962995;28;20544;-67
2023/03/14 00:55:48;;;;;;;1.23;1.00;;;9.40;99.90;;;;;;4949884;28;20197;-67
2023/03/14 00:58:16;;;;;;;0.70;0.70;;;9.40;99.90;;;;;;4953521;28;20591;-67
2023/03/14 01:00:42;;;;;;;1.60;0.90;;;9.40;99.90;;;;;;4963008;28;20436;-67
2023/03/14 01:03:09;;;;;;;2.63;0.80;;;9.40;99.90;;;;;;4964317;28;20443;-68
2023/03/14 01:05:34;;;;;;;0.90;0.80;;;9.40;99.90;;;;;;4951357;28;20480;-67
2023/03/14 01:08:00;;;;;;;1.17;0.80;;;9.40;99.90;;;;;;4955204;28;20499;-67
2023/03/14 01:10:26;;;;;;;1.03;0.87;;;9.40;99.90;;;;;;4958946;28;20244;-68
2023/03/14 01:12:51;;;;;;;1.30;1.20;;;9.40;99.90;;;;;;4959954;28;20188;-68
2023/03/14 01:15:19;;;;;;;1.10;0.87;;;9.40;99.90;;;;;;4953816;28;20823;-67
2023/03/14 01:17:45;;;;;;;0.97;0.90;;;9.50;99.90;;;;;;4947785;28;20181;-68
2023/03/14 01:20:12;;;;;;;0.90;0.80;;;9.40;99.90;;;;;;4954208;28;20763;-68
2023/03/14 01:22:39;;;;;;;1.00;0.87;;;9.50;99.90;;;;;;4958121;28;20187;-68
2023/03/14 01:25:11;;;;;;;0.80;0.60;;;9.50;99.90;;;;;;4955752;28;20969;-68
2023/03/14 01:27:37;;;;;;;1.53;1.07;;;9.50;99.90;;;;;;4956707;28;20443;-68
2023/03/14 01:30:04;;;;;;;0.83;0.80;;;9.50;99.90;;;;;;4956898;28;20467;-68
2023/03/14 01:32:29;;;;;;;1.00;0.90;;;9.50;99.90;;;;;;4961977;28;20181;-68
2023/03/14 01:34:55;;;;;;;1.20;1.07;;;9.50;99.90;;;;;;4956658;28;20556;-67
2023/03/14 01:37:20;;;;;;;1.90;0.70;;;9.50;99.90;;;;;;4954309;28;20667;-68
2023/03/14 01:39:47;;;;;;;1.17;0.70;;;9.50;99.90;;;;;;4957867;28;20188;-67
2023/03/14 01:42:12;;;;;;;0.70;0.70;;;9.50;99.90;;;;;;4959346;28;20243;-67
2023/03/14 01:44:59;;;;;;;3.90;0.77;;;9.50;99.90;;;;;;4958774;28;20452;-68
2023/03/14 01:47:25;;;;;;;0.97;0.87;;;9.50;99.90;;;;;;4954756;28;20189;-67
2023/03/14 01:49:57;;;;;;;0.90;0.60;;;9.50;99.90;;;;;;4960499;28;20541;-67
2023/03/14 01:52:33;;;;;;;1.27;0.70;;;9.50;99.90;;;;;;4959808;28;20523;-67
2023/03/14 01:55:05;;;;;;;1.00;0.90;;;9.50;99.90;;;;;;4951813;28;20858;-67
2023/03/14 01:57:41;;;;;;;0.60;0.53;;;9.50;99.90;;;;;;4960926;28;20511;-68
2023/03/14 02:00:11;;;;;;;2.40;0.77;;;9.40;99.90;;;;;;4957277;28;20428;-68
2023/03/14 02:02:39;;;;;;;2.10;1.07;;;9.40;99.90;;;;;;4961251;28;20448;-67
2023/03/14 02:05:05;;;;;;;0.80;0.67;;;9.40;99.90;;;;;;4951478;28;20464;-67
2023/03/14 02:08:01;;;;;;;0.63;0.63;;;9.30;99.90;;;;;;4954624;28;20448;-68
2023/03/14 02:10:31;;;;;;;1.67;1.00;;;9.30;99.90;;;;;;4961501;28;20476;-66
2023/03/14 02:13:00;;;;;;;1.50;1.20;;;9.30;99.90;;;;;;4957302;28;20448;-67
2023/03/14 02:15:26;;;;;;;1.43;0.70;;;9.30;99.90;;;;;;4953298;28;20464;-67
2023/03/14 02:17:52;;;;;;;0.70;0.60;;;9.30;99.90;;;;;;4965951;28;20440;-67
2023/03/14 02:20:38;;;;;;;0.73;0.73;;;9.20;99.90;;;;;;4962296;28;20787;-67
2023/03/14 02:23:04;;;;;;;0.70;0.70;;;9.20;99.90;;;;;;4955620;28;20211;-66
2023/03/14 02:25:51;;;;;;;0.50;0.50;;;9.20;99.90;;;;;;4954048;28;21066;-67
2023/03/14 02:28:16;;;;;;;2.83;0.70;;;9.30;99.90;;;;;;4956239;28;20499;-67
2023/03/14 02:30:42;;;;;;;1.10;0.60;;;9.30;99.90;;;;;;4961219;28;20471;-67
2023/03/14 02:33:11;;;;;;;0.60;0.60;;;9.20;99.90;;;;;;4953289;28;20192;-70
2023/03/14 02:35:36;;;;;;;1.23;0.93;;;9.20;99.90;;;;;;4955101;28;20495;-67
2023/03/14 02:38:27;;;;;;;0.70;0.70;;;9.20;99.90;;;;;;4963355;28;20494;-69
2023/03/14 02:40:52;;;;;;;0.60;0.60;;;9.20;99.90;;;;;;4959679;28;20271;-66
2023/03/14 02:43:18;;;;;;;0.63;0.63;;;9.20;99.90;;;;;;4959777;28;20586;-67
2023/03/14 02:45:48;;;;;;;0.60;0.50;;;9.30;99.90;;;;;;4955426;28;20618;-67
2023/03/14 02:48:24;;;;;;;0.70;0.63;;;9.20;99.90;;;;;;4970036;28;20308;-66
2023/03/14 02:50:53;;;;;;;1.10;0.60;;;9.20;99.90;;;;;;4963863;28;20467;-66
2023/03/14 02:53:23;;;;;;;3.53;0.73;;;9.20;99.90;;;;;;4953071;28;20480;-67
2023/03/14 02:55:49;;;;;;;1.13;1.00;;;9.20;99.90;;;;;;4953527;28;20843;-70
2023/03/14 02:58:15;;;;;;;1.20;0.70;;;9.20;99.90;;;;;;4955616;28;20436;-67
2023/03/14 03:00:41;;;;;;;0.90;0.80;;;9.20;99.90;;;;;;4968512;28;20444;-70
2023/03/14 03:03:06;;;;;;;1.20;0.83;;;9.20;99.90;;;;;;4960077;28;20977;-69
2023/03/14 03:05:32;;;;;;;1.73;0.70;;;9.20;99.90;;;;;;4956317;28;20207;-69
2023/03/14 03:07:58;;;;;;;3.60;0.63;;;9.20;99.90;;;;;;4957534;28;20189;-67
2023/03/14 03:10:24;;;;;;;1.37;0.80;;;9.20;99.90;;;;;;4964648;28;20227;-67
2023/03/14 03:12:51;;;;;;;0.97;0.80;;;9.20;99.90;;;;;;4959934;28;20235;-69
2023/03/14 03:15:16;;;;;;;1.43;1.03;;;9.10;99.90;;;;;;4955688;28;20456;-69
2023/03/14 03:17:42;;;;;;;1.00;0.80;;;9.10;99.90;;;;;;4966215;28;20594;-67
2023/03/14 03:20:09;;;;;;;1.00;0.90;;;9.10;99.90;;;;;;4966185;28;20194;-69
2023/03/14 03:22:38;;;;;;;2.50;1.33;;;9.10;99.90;;;;;;4957196;28;20545;-67
2023/03/14 03:25:06;;;;;;;1.17;0.80;;;9.10;99.90;;;;;;4955009;28;20575;-69
2023/03/14 03:27:32;;;;;;;1.90;1.00;;;9.10;99.90;;;;;;4966173;28;20436;-69
2023/03/14 03:29:58;;;;;;;1.17;0.70;;;9.10;99.90;;;;;;4965823;28;20826;-69
2023/03/14 03:32:24;;;;;;;5.80;1.07;;;9.10;99.90;;;;;;4962657;28;20441;-69
2023/03/14 03:34:50;;;;;;;2.60;1.00;;;9.20;99.90;;;;;;4954114;28;20455;-69
2023/03/14 03:37:15;;;;;;;2.03;0.90;;;9.20;99.90;;;;;;4963304;28;20180;-67
2023/03/14 03:39:41;;;;;;;1.50;1.10;;;9.20;99.90;;;;;;4965024;28;20298;-67
2023/03/14 03:42:06;;;;;;;4.53;1.10;;;9.20;99.90;;;;;;4966921;28;20627;-70
2023/03/14 03:44:32;;;;;;;1.90;1.03;;;9.20;99.90;;;;;;4955051;28;20229;-67
2023/03/14 03:46:57;;;;;;;5.70;0.83;;;9.20;99.90;;;;;;4960242;28;20561;-67
2023/03/14 03:49:23;;;;;;;2.97;1.13;;;9.10;99.90;;;;;;4963127;28;20215;-69
2023/03/14 03:51:49;;;;;;;1.63;1.10;;;9.10;99.90;;;;;;4966574;28;20184;-69
2023/03/14 03:54:14;;;;;;;4.70;1.20;;;9.10;99.90;;;;;;4955781;28;20180;-68
2023/03/14 03:56:40;;;;;;;9.63;1.50;;;9.10;99.90;;;;;;4957921;28;20204;-67
2023/03/14 03:59:05;;;;;;;2.20;0.90;;;9.10;99.90;;;;;;4961666;28;20184;-67
2023/03/14 04:01:30;;;;;;;1.53;1.07;;;9.10;99.90;;;;;;4959242;28;20854;-67
2023/03/14 04:03:56;;;;;;;2.33;1.33;;;9.10;99.90;;;;;;4953250;28;20237;-67
2023/03/14 04:06:22;;;;;;;2.20;1.07;;;9.10;99.90;;;;;;4956590;28;20196;-67
2023/03/14 04:08:47;;;;;;;1.63;1.53;;;9.10;99.90;;;;;;4961599;28;20196;-67
2023/03/14 04:11:13;;;;;;;3.63;1.10;;;9.10;99.90;;;;;;4962203;28;20328;-67
2023/03/14 04:13:38;;;;;;;2.83;0.90;;;9.10;99.90;;;;;;4952950;28;20180;-67
2023/03/14 04:16:14;;;;;;;1.67;0.97;;;9.00;99.90;;;;;;4954904;28;20205;-67
2023/03/14 04:18:39;;;;;;;2.90;1.00;;;9.00;99.90;;;;;;4949214;28;20204;-67
2023/03/14 04:21:05;;;;;;;3.57;1.33;;;9.00;99.90;;;;;;4965722;28;20474;-67
2023/03/14 04:23:30;;;;;;;2.60;1.20;;;9.00;99.90;;;;;;4952803;28;20184;-67
2023/03/14 04:25:56;;;;;;;4.10;2.33;;;9.00;99.90;;;;;;4953194;28;20283;-67
2023/03/14 04:28:21;;;;;;;4.80;1.10;;;9.00;99.90;;;;;;4961601;28;20256;-67
2023/03/14 04:30:47;;;;;;;2.63;0.97;;;9.00;99.90;;;;;;4959684;28;20266;-67
2023/03/14 04:33:16;;;;;;;2.13;1.27;;;9.00;99.90;;;;;;4954257;28;20184;-67
2023/03/14 04:35:45;;;;;;;4.83;1.20;;;9.00;99.90;;;;;;4951650;28;20252;-68
2023/03/14 04:38:11;;;;;;;5.13;1.10;;;9.00;99.90;;;;;;4960617;28;20438;-67
2023/03/14 04:40:38;;;;;;;2.10;1.07;;;9.00;99.90;;;;;;4963502;28;20451;-67
2023/03/14 04:43:03;;;;;;;1.40;0.90;;;8.90;99.90;;;;;;4953921;28;20189;-67
2023/03/14 04:45:29;;;;;;;1.90;1.00;;;8.90;99.90;;;;;;4953436;28;20464;-67
2023/03/14 04:47:54;;;;;;;2.60;1.07;;;8.90;99.90;;;;;;4962325;28;20684;-67
2023/03/14 04:50:20;;;;;;;3.00;0.90;;;8.90;99.90;;;;;;4957351;28;20291;-68
2023/03/14 04:52:45;;;;;;;1.43;0.90;;;8.90;99.90;;;;;;4958182;28;20209;-67
2023/03/14 04:55:11;;;;;;;8.13;1.20;;;8.90;99.90;;;;;;4953180;28;20201;-68
2023/03/14 04:57:36;;;;;;;2.83;1.23;;;8.80;99.90;;;;;;4962182;28;20177;-67
2023/03/14 05:00:06;;;;;;;4.37;1.10;;;8.80;99.90;;;;;;4964100;28;20266;-69
2023/03/14 05:02:31;;;;;;;4.13;2.63;;;8.80;99.90;;;;;;4952886;28;20185;-68
2023/03/14 05:04:57;;;;;;;6.13;1.23;;;8.80;99.90;;;;;;4951927;28;20471;-70
2023/03/14 05:07:22;;;;;;;2.27;1.33;;;8.80;99.90;;;;;;4952866;28;20651;-67
2023/03/14 05:09:48;;;;;;;3.13;1.03;;;8.70;99.90;;;;;;4965094;28;20219;-67
2023/03/14 05:12:14;;;;;;;3.63;1.47;;;8.70;99.90;;;;;;4959009;28;20196;-67
2023/03/14 05:14:39;;;;;;;2.60;1.20;;;8.70;99.90;;;;;;4957198;28;20326;-68
2023/03/14 05:17:05;;;;;;;3.57;1.37;;;8.70;99.90;;;;;;4955987;28;20268;-69
2023/03/14 05:19:30;;;;;;;1.83;1.03;;;8.70;99.90;;;;;;4960678;28;20242;-68
2023/03/14 05:21:56;;;;;;;1.43;0.80;;;8.70;99.90;;;;;;4950375;28;20199;-68
2023/03/14 05:24:22;;;;;;;2.23;0.80;;;8.80;99.90;;;;;;4952008;28;20191;-68
2023/03/14 05:26:47;;;;;;;2.87;1.10;;;8.80;99.90;;;;;;4951996;28;20460;-67
2023/03/14 05:29:13;;;;;;;2.67;0.73;;;8.80;99.90;;;;;;4960185;28;20263;-68
2023/03/14 05:31:39;;;;;;;2.33;1.10;;;8.80;99.90;;;;;;4951334;28;20670;-68
2023/03/14 05:34:04;;;;;;;2.33;1.50;;;8.80;99.90;;;;;;4952521;28;20181;-68
2023/03/14 05:36:30;;;;;;;2.87;2.10;;;8.80;99.90;;;;;;4959760;28;20283;-68
2023/03/14 05:38:55;;;;;;;3.40;1.73;;;8.80;99.90;;;;;;4951771;28;20261;-68
2023/03/14 05:41:21;;;;;;;4.70;1.60;;;8.80;99.90;;;;;;4953587;28;20195;-68
2023/03/14 05:43:46;;;;;;;3.77;1.00;;;8.80;99.90;;;;;;4952817;28;20195;-68
2023/03/14 05:46:12;;;;;;;2.90;1.30;;;8.80;99.90;;;;;;4960708;28;20216;-68
2023/03/14 05:48:37;;;;;;;4.30;1.83;;;8.80;99.90;;;;;;4958434;28;20184;-68
2023/03/14 05:51:03;;;;;;;5.13;1.33;;;8.80;99.90;;;;;;4952756;28;20220;-68
2023/03/14 05:53:29;;;;;;;1.30;1.10;;;8.80;99.90;;;;;;4959472;28;20184;-68
2023/03/14 05:55:55;;;;;;;4.90;1.10;;;8.80;99.90;;;;;;4948539;28;20227;-68
2023/03/14 05:58:21;;;;;;;2.83;0.97;;;8.80;99.90;;;;;;4952189;28;20440;-68
2023/03/14 06:00:47;;;;;;;2.43;1.13;;;8.70;99.90;;;;;;4948749;28;20437;-68
2023/03/14 06:03:12;;;;;;;2.67;1.00;;;8.70;99.90;;;;;;4952078;28;20181;-68
2023/03/14 06:05:38;;;;;;;3.10;1.30;;;8.80;99.90;;;;;;4952145;28;20209;-70
2023/03/14 06:08:04;;;;;;;3.00;0.93;;;8.80;99.90;;;;;;4952236;28;20189;-68
2023/03/14 06:10:29;;;;;;;6.07;1.30;;;8.80;99.90;;;;;;4953098;28;20208;-68
2023/03/14 06:12:55;;;;;;;1.73;1.10;;;8.80;99.90;;;;;;4951171;28;20211;-68
2023/03/14 06:15:20;;;;;;;3.13;1.27;;;8.80;99.90;;;;;;4957203;28;20227;-71
2023/03/14 06:17:46;;;;;;;5.07;1.47;;;8.90;99.90;;;;;;4960151;28;20184;-70
2023/03/14 06:20:12;;;;;;;1.13;0.83;;;8.90;99.90;;;;;;4954529;28;20551;-70
2023/03/14 06:22:40;;;;;;;2.23;1.20;;;8.90;99.90;;;;;;4960352;28;20210;-68
2023/03/14 06:25:06;;;;;;;5.00;1.20;;;8.90;99.90;;;;;;4967106;28;20470;-68
2023/03/14 06:27:32;;;;;;;3.17;1.07;;;9.00;99.90;;;;;;4961114;28;20436;-68
2023/03/14 06:29:57;;;;;;;3.17;0.70;;;9.00;99.90;;;;;;4958139;28;20474;-68
2023/03/14 06:32:23;;;;;;;0.87;0.80;;;9.00;99.90;;;;;;4957936;28;20271;-68
2023/03/14 06:34:48;;;;;;;4.27;1.23;;;9.10;99.90;;;;;;4966992;28;20223;-68
2023/03/14 06:37:14;;;;;;;6.03;0.90;;;9.10;99.90;;;;;;4967457;28;20173;-68
2023/03/14 06:39:40;;;;;;;1.90;1.67;;;9.20;99.90;;;;;;4953332;28;20193;-68
2023/03/14 06:42:05;;;;;;;1.70;0.83;;;9.20;99.90;;;;;;4954781;28;20646;-71
2023/03/14 06:44:31;;;;;;;2.40;0.77;;;9.30;99.90;;;;;;4965456;28;20181;-69
2023/03/14 06:46:56;;;;;;;0.90;0.70;;;9.30;99.90;;;;;;4964263;28;20812;-67
2023/03/14 06:49:22;;;;;;;1.70;0.90;;;9.40;99.90;;;;;;4960867;28;20217;-67
2023/03/14 06:51:47;;;;;;;2.30;0.80;;;9.50;99.90;;;;;;4957392;28;20290;-69
2023/03/14 06:54:13;;;;;;;1.43;0.80;;;9.70;99.90;;;;;;4954513;28;20724;-68
2023/03/14 06:56:38;;;;;;;0.80;0.63;;;9.90;99.90;;;;;;4950683;28;20207;-67
2023/03/14 06:59:04;;;;;;;0.80;0.60;;;10.00;99.90;;;;;;4954238;28;20185;-68
2023/03/14 07:01:32;;;;;;;1.13;0.80;;;10.10;99.90;;;;;;4956848;28;20185;-68
2023/03/14 07:03:58;;;;;;;3.60;0.90;;;10.10;99.90;;;;;;4954972;28;20579;-68
2023/03/14 07:06:24;;;;;;;3.03;0.67;;;10.10;99.90;;;;;;4955450;28;20475;-68
2023/03/14 07:08:49;;;;;;;1.33;0.60;;;10.00;99.90;;;;;;4960269;28;20263;-67
2023/03/14 07:11:15;;;;;;;0.60;0.60;;;10.00;99.90;;;;;;4958104;28;20554;-68
2023/03/14 07:13:41;;;;;;;1.40;0.83;;;10.10;99.90;;;;;;4963465;28;20189;-68
2023/03/14 07:16:07;;;;;;;1.17;0.60;;;10.40;99.90;;;;;;4961789;28;20197;-68
2023/03/14 07:18:33;;;;;;;0.70;0.70;;;10.80;99.90;;;;;;4951112;28;20614;-69
2023/03/14 07:20:58;;;;;;;0.60;0.60;;;10.70;99.90;;;;;;4953041;28;20455;-68
2023/03/14 07:23:24;;;;;;;2.20;0.80;;;10.70;99.90;;;;;;4959739;28;20599;-68
2023/03/14 07:25:50;;;;;;;1.10;0.80;;;11.00;99.90;;;;;;4952008;28;20680;-68
2023/03/14 07:28:16;;;;;;;0.80;0.80;;;11.20;99.90;;;;;;4952031;28;20188;-68
2023/03/14 07:30:42;;;;;;;1.20;1.00;;;11.40;99.90;;;;;;4959152;28;20976;-69
2023/03/14 07:33:07;;;;;;;3.50;0.70;;;11.70;99.90;;;;;;4962333;28;20185;-68
2023/03/14 07:35:33;;;;;;;1.10;0.63;;;11.80;99.90;;;;;;4956590;28;20208;-68
2023/03/14 07:37:58;;;;;;;1.00;0.90;;;11.90;99.90;;;;;;4957748;28;20212;-69
2023/03/14 07:40:24;;;;;;;5.60;0.87;;;11.90;99.90;;;;;;4954667;28;20244;-69
2023/03/14 07:42:49;;;;;;;1.60;0.80;;;12.00;99.90;;;;;;4954524;28;20188;-69
2023/03/14 07:45:15;;;;;;;1.27;0.70;;;12.10;99.90;;;;;;4954136;28;20212;-70
2023/03/14 07:47:41;;;;;;;1.43;0.90;;;12.10;99.90;;;;;;4955678;28;20631;-69
2023/03/14 07:50:07;;;;;;;2.20;0.90;;;12.20;99.90;;;;;;4953417;28;20460;-69
2023/03/14 07:52:33;;;;;;;1.53;0.60;;;12.30;99.90;;;;;;4956819;28;20196;-70
2023/03/14 07:54:58;;;;;;;2.87;0.90;;;12.70;99.90;;;;;;4963000;28;20467;-69
2023/03/14 07:57:24;;;;;;;1.60;0.70;;;12.80;99.90;;;;;;4958779;28;20231;-69
2023/03/14 07:59:50;;;;;;;3.73;0.70;;;12.60;99.90;;;;;;4952930;28;20236;-69
2023/03/14 08:02:16;;;;;;;0.80;0.80;;;12.30;99.90;;;;;;4960627;28;20195;-69
2023/03/14 08:04:41;;;;;;;1.37;0.63;;;12.40;99.90;;;;;;4961700;28;20621;-68
2023/03/14 08:07:07;;;;;;;1.47;0.87;;;12.70;99.90;;;;;;4961989;28;20530;-72
2023/03/14 08:09:32;;;;;;;1.43;1.00;;;13.20;99.90;;;;;;4949911;28;20213;-68
2023/03/14 08:11:58;;;;;;;1.20;1.10;;;13.30;99.90;;;;;;4951771;28;20573;-69
2023/03/14 08:14:23;;;;;;;2.27;1.10;;;13.10;99.90;;;;;;4957044;28;20651;-69
2023/03/14 08:16:50;;;;;;;1.03;0.70;;;12.90;99.90;;;;;;4954371;28;20205;-71
2023/03/14 08:19:16;;;;;;;1.87;0.77;;;13.10;99.90;;;;;;4952356;29;20634;-69
2023/03/14 08:21:41;;;;;;;1.00;0.73;;;13.70;99.90;;;;;;4959510;28;20436;-68
2023/03/14 08:24:07;;;;;;;3.80;0.93;;;14.10;99.90;;;;;;4965194;28;20192;-68
2023/03/14 08:26:33;;;;;;;1.23;0.73;;;14.70;99.90;;;;;;4961084;28;20204;-69
2023/03/14 08:28:58;;;;;;;2.70;1.40;;;15.30;99.90;;;;;;4952826;28;20188;-68
2023/03/14 08:31:24;;;;;;;1.90;0.80;;;15.20;99.90;;;;;;4956571;28;20697;-68
2023/03/14 08:33:51;;;;;;;1.13;0.93;;;15.30;99.90;;;;;;4965420;28;20183;-69
2023/03/14 08:36:18;;;;;;;1.27;0.90;;;15.50;99.90;;;;;;4959762;28;20235;-68
2023/03/14 08:38:43;;;;;;;1.27;1.00;;;15.70;99.90;;;;;;4951563;28;20439;-69
2023/03/14 08:41:09;;;;;;;0.93;0.90;;;15.80;99.90;;;;;;4951549;28;20440;-69
2023/03/14 08:43:35;;;;;;;1.77;0.93;;;15.70;99.90;;;;;;4948552;28;20207;-69
2023/03/14 08:46:02;;;;;;;1.83;0.80;;;15.50;99.90;;;;;;4952866;28;20474;-71
2023/03/14 08:48:29;;;;;;;1.00;0.90;;;15.70;99.90;;;;;;4948463;28;20181;-68
2023/03/14 08:50:56;;;;;;;1.77;1.10;;;15.90;99.90;;;;;;4952593;28;21076;-70
2023/03/14 08:53:22;;;;;;;1.33;1.10;;;16.00;99.90;;;;;;4950039;28;20447;-68
2023/03/14 08:55:52;;;;;;;0.90;0.90;;;16.50;99.90;;;;;;4954209;28;20523;-68
2023/03/14 08:58:18;;;;;;;0.90;0.73;;;16.30;99.90;;;;;;4952998;28;20797;-69
2023/03/14 09:00:43;;;;;;;3.30;0.97;;;16.20;99.90;;;;;;4954778;28;20180;-71
2023/03/14 09:03:09;;;;;;;1.10;0.73;;;15.60;99.90;;;;;;4953570;28;20240;-68
2023/03/14 09:05:34;;;;;;;1.03;0.67;;;15.00;99.90;;;;;;4954162;28;20200;-68
2023/03/14 09:08:00;;;;;;;1.20;0.90;;;14.70;99.90;;;;;;4954246;28;20215;-69
2023/03/14 09:10:25;;;;;;;1.00;0.90;;;14.00;99.90;;;;;;4953109;28;20208;-68
2023/03/14 09:12:51;;;;;;;2.40;1.17;;;13.60;99.90;;;;;;4952810;28;20177;-69
2023/03/14 09:15:16;;;;;;;0.93;0.87;;;13.70;99.90;;;;;;4953478;28;20228;-68
2023/03/14 09:17:43;;;;;;;2.30;0.60;;;13.60;99.90;;;;;;4956949;28;20178;-68
2023/03/14 09:20:09;;;;;;;1.07;0.77;;;13.40;99.90;;;;;;4954366;28;20181;-68
2023/03/14 09:22:35;;;;;;;1.33;0.70;;;13.40;99.90;;;;;;4956604;28;20958;-68
2023/03/14 09:25:03;;;;;;;1.83;0.70;;;13.50;99.90;;;;;;4948376;28;20456;-71
2023/03/14 09:27:28;;;;;;;0.80;0.70;;;14.00;99.90;;;;;;4953718;28;20820;-69
2023/03/14 09:29:54;;;;;;;0.80;0.80;;;14.40;99.90;;;;;;4952955;28;20460;-69
2023/03/14 09:32:19;;;;;;;2.07;1.47;;;14.80;99.90;;;;;;4954350;28;20188;-68
2023/03/14 09:34:45;;;;;;;1.60;1.50;;;14.80;99.90;;;;;;4948980;28;20205;-69
2023/03/14 09:37:10;;;;;;;2.60;0.80;;;14.90;99.90;;;;;;4951124;28;20203;-68
2023/03/14 09:39:36;;;;;;;1.70;0.90;;;14.30;99.90;;;;;;4956125;28;20219;-69
2023/03/14 09:42:07;;;;;;;2.67;0.80;;;13.90;99.90;;;;;;4964185;28;20183;-70
2023/03/14 09:44:37;;;;;;;0.90;0.90;;;13.70;99.90;;;;;;4951834;28;20673;-69
2023/03/14 09:47:10;;;;;;;0.83;0.83;;;13.50;99.90;;;;;;4949619;28;20448;-68
2023/03/14 09:49:42;;;;;;;1.67;1.00;;;13.30;99.90;;;;;;4949619;28;20467;-68
2023/03/14 09:52:34;;;;;;;1.60;0.50;;;13.20;99.90;;;;;;4950693;28;20444;-68
2023/03/14 09:55:04;;;;;;;0.60;0.60;;;12.90;99.90;;;;;;4960374;28;20456;-68
2023/03/14 09:57:32;;;;;;;0.70;0.70;;;12.70;99.90;;;;;;4959443;28;20456;-69
2023/03/14 10:00:13;;;;;;;1.50;0.73;;;12.80;99.90;;;;;;4950458;28;20440;-69
2023/03/14 10:02:41;;;;;;;1.10;1.00;;;12.80;99.90;;;;;;4948765;28;20807;-70
2023/03/14 10:05:21;;;;;;;2.67;0.70;;;13.00;99.90;;;;;;4959994;28;20464;-68
2023/03/14 10:07:47;;;;;;;0.70;0.60;;;13.20;99.90;;;;;;4943670;28;20517;-69
2023/03/14 10:10:24;;;;;;;1.27;1.17;;;14.00;99.90;;;;;;4949976;28;20911;-70
2023/03/14 10:13:21;;;;;;;0.70;0.70;;;15.40;99.90;;;;;;4954052;28;20204;-68
2023/03/14 10:16:07;;;;;;;3.40;0.97;;;16.30;99.90;;;;;;4950816;28;20499;-69
2023/03/14 10:18:36;;;;;;;1.00;0.60;;;17.30;99.90;;;;;;4949982;28;22063;-70
2023/03/14 10:21:24;;;;;;;1.00;0.90;;;17.60;99.90;;;;;;4950837;28;20458;-69
2023/03/14 10:23:49;;;;;;;0.80;0.60;;;18.00;99.90;;;;;;4948144;28;20447;-69
2023/03/14 10:26:17;;;;;;;0.70;0.70;;;17.60;99.90;;;;;;4949721;28;20832;-71
2023/03/14 10:28:51;;;;;;;0.90;0.90;;;17.10;99.90;;;;;;4949672;29;20272;-68
2023/03/14 10:31:17;;;;;;;0.73;0.73;;;16.70;99.90;;;;;;4947717;28;20840;-69
2023/03/14 10:34:01;;;;;;;1.33;0.80;;;15.80;99.90;;;;;;4962116;28;20435;-69
2023/03/14 10:36:34;;;;;;;0.70;0.70;;;14.90;99.90;;;;;;4952942;28;20478;-70
2023/03/14 10:39:24;;;;;;;0.67;0.60;;;14.80;99.90;;;;;;4950152;29;20432;-69
2023/03/14 10:41:56;;;;;;;2.80;0.70;;;15.20;99.90;;;;;;4954748;28;20424;-69
2023/03/14 10:44:25;;;;;;;0.80;0.80;;;15.70;99.90;;;;;;4954780;28;20892;-69
2023/03/14 10:47:00;;;;;;;0.60;0.60;;;16.00;99.90;;;;;;4955693;28;20493;-68
2023/03/14 10:49:34;;;;;;;0.87;0.80;;;15.40;99.90;;;;;;4953543;28;20531;-69
2023/03/14 10:52:24;;;;;;;0.70;0.70;;;15.00;99.90;;;;;;4964289;28;20952;-68
2023/03/14 10:55:09;;;;;;;1.47;0.80;;;14.30;99.90;;;;;;4956505;28;20507;-68
2023/03/14 10:57:39;;;;;;;1.07;0.83;;;13.80;99.90;;;;;;4959111;28;20436;-68
2023/03/14 11:00:14;;;;;;;0.57;0.57;;;13.50;99.90;;;;;;4950989;28;20436;-69
2023/03/14 11:02:45;;;;;;;0.73;0.70;;;13.20;99.90;;;;;;4959902;28;20539;-68
2023/03/14 11:05:23;;;;;;;0.73;0.73;;;13.00;99.90;;;;;;4963435;28;20456;-68
2023/03/14 11:07:50;;;;;;;0.93;0.80;;;12.70;99.90;;;;;;4948724;28;20530;-67
2023/03/14 11:10:32;;;;;;;0.77;0.67;;;12.70;99.90;;;;;;4951738;28;20906;-68
2023/03/14 11:13:08;;;;;;;1.10;0.70;;;12.60;99.90;;;;;;4956221;28;20428;-68
2023/03/14 11:16:08;;;;;;;0.80;0.80;;;12.80;99.90;;;;;;4961782;28;20461;-68
2023/03/14 11:18:47;;;;;;;0.83;0.83;;;13.00;99.90;;;;;;4950122;28;20436;-74
2023/03/14 11:21:46;;;;;;;0.60;0.60;;;13.00;99.90;;;;;;4960477;28;20440;-68
2023/03/14 11:24:52;;;;;;;0.60;0.60;;;12.80;99.90;;;;;;4958083;28;20912;-68
2023/03/14 11:27:39;;;;;;;0.60;0.60;;;12.40;99.90;;;;;;4940796;28;20575;-68
2023/03/14 11:30:17;;;;;;;0.60;0.60;;;12.10;99.90;;;;;;4952518;28;20488;-69
2023/03/14 11:33:28;;;;;;;0.67;0.53;;;12.00;99.90;;;;;;4954493;28;20444;-68
2023/03/14 11:36:13;;;;;;;0.50;0.50;;;11.70;99.90;;;;;;4965164;28;20467;-69
2023/03/14 11:38:56;;;;;;;0.50;0.50;;;11.60;99.90;;;;;;4951506;28;20443;-71
2023/03/14 11:41:28;;;;;;;1.00;0.70;;;11.60;99.90;;;;;;4955411;28;20448;-70
2023/03/14 11:43:59;;;;;;;0.50;0.50;;;11.60;99.90;;;;;;4960062;28;20964;-68
2023/03/14 11:46:26;;;;;;;1.43;0.93;;;11.40;99.90;;;;;;4956641;28;20476;-69
2023/03/14 11:49:27;;;;;;;1.33;0.60;;;11.30;99.90;;;;;;4950328;28;20460;-68
2023/03/14 11:51:59;;;;;;;3.47;0.60;;;11.30;99.90;;;;;;4942114;28;20448;-68
2023/03/14 11:54:39;;;;;;;1.80;1.07;;;11.30;99.90;;;;;;4954112;28;20884;-67
2023/03/14 11:57:15;;;;;;;0.70;0.70;;;11.20;99.90;;;;;;4957352;28;20459;-67
2023/03/14 11:59:51;;;;;;;2.47;0.70;;;11.10;99.90;;;;;;4952374;28;20440;-68
2023/03/14 12:02:23;;;;;;;0.60;0.60;;;11.10;99.90;;;;;;4953164;28;20526;-68
2023/03/14 12:05:07;;;;;;;0.57;0.50;;;11.30;99.90;;;;;;4964177;28;20448;-68
2023/03/14 12:08:00;;;;;;;0.80;0.60;;;11.50;99.90;;;;;;4957972;28;20834;-71
2023/03/14 12:10:26;;;;;;;3.50;0.70;;;11.40;99.90;;;;;;4953584;28;20479;-70
2023/03/14 12:12:52;;;;;;;0.97;0.60;;;11.20;99.90;;;;;;4958916;28;20447;-69
2023/03/14 12:15:23;;;;;;;0.90;0.60;;;11.10;99.90;;;;;;4961559;28;20555;-70
2023/03/14 12:17:54;;;;;;;0.40;0.40;;;11.00;99.90;;;;;;4953519;28;20444;-70
2023/03/14 12:20:25;;;;;;;0.70;0.70;;;11.00;99.90;;;;;;4953320;28;20447;-70
2023/03/14 12:23:05;;;;;;;4.23;0.60;;;11.20;99.90;;;;;;4961111;28;20448;-70
2023/03/14 12:25:33;;;;;;;0.97;0.53;;;11.70;99.90;;;;;;4964235;28;20479;-69
2023/03/14 12:28:19;;;;;;;0.60;0.60;;;12.50;99.90;;;;;;4957244;28;20440;-70
2023/03/14 12:30:44;;;;;;;0.60;0.60;;;13.40;99.90;;;;;;4953158;28;20559;-70
2023/03/14 12:33:10;;;;;;;5.13;1.00;;;13.00;99.90;;;;;;4957163;28;20455;-70
2023/03/14 12:35:38;;;;;;;1.37;0.60;;;12.60;99.90;;;;;;4963742;28;20207;-69
2023/03/14 12:38:18;;;;;;;0.80;0.80;;;12.70;99.90;;;;;;4951145;28;20177;-70
2023/03/14 12:41:21;;;;;;;1.30;1.13;;;15.20;99.90;;;;;;4951978;28;20458;-73
2023/03/14 12:43:47;;;;;;;1.00;1.00;;;17.80;99.90;;;;;;4951560;28;20451;-70
2023/03/14 12:46:20;;;;;;;1.37;1.20;;;18.90;98.50;;;;;;4954462;28;20472;-71
2023/03/14 12:48:48;;;;;;;1.30;1.07;;;19.60;94.50;;;;;;4949154;29;20222;-71
2023/03/14 12:51:18;;;;;;;0.93;0.80;;;19.00;91.00;;;;;;4953356;28;20467;-70
2023/03/14 12:54:09;;;;;;;0.90;0.90;;;19.30;90.90;;;;;;4960840;28;20435;-69
2023/03/14 12:56:54;;;;;;;1.13;0.80;;;19.30;89.20;;;;;;4955649;28;20467;-70
2023/03/14 12:59:33;;;;;;;1.57;1.30;;;19.40;78.30;;;;;;4951338;28;20432;-69
2023/03/14 13:02:08;;;;;;;1.53;1.43;;;19.50;79.90;;;;;;4956937;28;20567;-69
2023/03/14 13:04:36;;;;;;;1.97;1.20;;;18.60;74.00;;;;;;4952115;28;20482;-71